createdAt,value
2017-06-02T00:00:00.312Z,16.9
2017-06-02T00:00:40.901Z,16.79
2017-06-02T00:01:21.477Z,16.76
2017-06-02T00:02:02.073Z,16.79
2017-06-02T00:02:42.647Z,16.75
2017-06-02T00:03:23.225Z,16.79
2017-06-02T00:04:03.825Z,16.87
2017-06-02T00:04:44.403Z,16.74
2017-06-02T00:05:24.995Z,16.71
2017-06-02T00:06:05.572Z,16.78
2017-06-02T00:06:46.163Z,16.75
2017-06-02T00:07:26.740Z,16.68
2017-06-02T00:08:07.326Z,16.75
2017-06-02T00:08:47.905Z,16.74
2017-06-02T00:09:28.481Z,16.66
2017-06-02T00:10:09.056Z,16.76
2017-06-02T00:10:49.633Z,16.66
2017-06-02T00:11:30.216Z,16.74
2017-06-02T00:12:10.798Z,16.75
2017-06-02T00:12:51.390Z,16.66
2017-06-02T00:13:32.011Z,16.74
2017-06-02T00:14:12.595Z,16.72
2017-06-02T00:14:53.189Z,16.65
2017-06-02T00:15:33.783Z,16.66
2017-06-02T00:16:14.391Z,16.64
2017-06-02T00:16:54.981Z,16.64
2017-06-02T00:17:35.567Z,16.75
2017-06-02T00:18:16.145Z,16.68
2017-06-02T00:18:56.735Z,16.68
2017-06-02T00:19:37.324Z,16.69
2017-06-02T00:20:17.908Z,16.65
2017-06-02T00:20:58.494Z,16.76
2017-06-02T00:21:39.067Z,16.75
2017-06-02T00:22:19.661Z,16.72
2017-06-02T00:23:00.250Z,16.58
2017-06-02T00:23:40.837Z,16.65
2017-06-02T00:24:21.457Z,16.72
2017-06-02T00:25:02.048Z,16.65
2017-06-02T00:25:42.619Z,16.65
2017-06-02T00:26:23.187Z,16.61
2017-06-02T00:27:03.779Z,16.64
2017-06-02T00:27:44.355Z,16.68
2017-06-02T00:28:24.960Z,16.64
2017-06-02T00:29:05.546Z,16.6
2017-06-02T00:29:46.136Z,16.54
2017-06-02T00:30:26.721Z,16.54
2017-06-02T00:31:07.313Z,16.57
2017-06-02T00:31:47.893Z,16.57
2017-06-02T00:32:28.478Z,16.53
2017-06-02T00:33:09.067Z,16.56
2017-06-02T00:33:49.659Z,16.56
2017-06-02T00:34:30.238Z,16.64
2017-06-02T00:35:10.823Z,16.53
2017-06-02T00:35:51.393Z,16.51
2017-06-02T00:36:31.973Z,16.47
2017-06-02T00:37:12.566Z,16.5
2017-06-02T00:37:53.152Z,16.5
2017-06-02T00:38:33.725Z,16.46
2017-06-02T00:39:14.316Z,16.5
2017-06-02T00:39:54.913Z,16.43
2017-06-02T00:40:35.500Z,16.5
2017-06-02T00:41:16.079Z,16.32
2017-06-02T00:41:56.655Z,16.42
2017-06-02T00:42:37.244Z,16.42
2017-06-02T00:43:17.836Z,16.42
2017-06-02T00:43:58.427Z,16.38
2017-06-02T00:44:39.041Z,16.33
2017-06-02T00:45:19.618Z,16.39
2017-06-02T00:46:00.199Z,16.36
2017-06-02T00:46:40.782Z,16.33
2017-06-02T00:47:21.365Z,16.32
2017-06-02T00:48:01.943Z,16.32
2017-06-02T00:48:42.528Z,16.36
2017-06-02T00:49:23.113Z,16.38
2017-06-02T00:50:03.694Z,16.35
2017-06-02T00:50:44.284Z,16.38
2017-06-02T00:51:24.860Z,16.33
2017-06-02T00:52:05.452Z,16.32
2017-06-02T00:52:46.037Z,16.38
2017-06-02T00:53:26.617Z,16.36
2017-06-02T00:54:07.204Z,16.35
2017-06-02T00:54:47.780Z,16.32
2017-06-02T00:55:28.364Z,16.28
2017-06-02T00:56:08.945Z,16.24
2017-06-02T00:56:49.514Z,16.29
2017-06-02T00:57:30.125Z,16.26
2017-06-02T00:58:10.722Z,16.29
2017-06-02T00:58:51.336Z,16.24
2017-06-02T00:59:31.919Z,16.29
2017-06-02T01:00:12.514Z,16.24
2017-06-02T01:00:53.087Z,16.31
2017-06-02T01:01:33.675Z,16.24
2017-06-02T01:02:14.252Z,16.21
2017-06-02T01:02:54.852Z,16.26
2017-06-02T01:03:35.438Z,16.23
2017-06-02T01:04:16.031Z,16.24
2017-06-02T01:04:56.606Z,16.13
2017-06-02T01:05:37.196Z,16.21
2017-06-02T01:06:17.791Z,16.17
2017-06-02T01:06:58.377Z,16.1
2017-06-02T01:07:38.955Z,16.17
2017-06-02T01:08:19.532Z,16.09
2017-06-02T01:09:00.119Z,16.13
2017-06-02T01:09:40.710Z,16.04
2017-06-02T01:10:21.317Z,16.13
2017-06-02T01:11:01.934Z,16.04
2017-06-02T01:11:42.524Z,16.12
2017-06-02T01:12:23.107Z,16.05
2017-06-02T01:13:03.718Z,16.1
2017-06-02T01:13:44.311Z,16.08
2017-06-02T01:14:24.900Z,16.04
2017-06-02T01:15:05.500Z,16.04
2017-06-02T01:15:46.077Z,16.02
2017-06-02T01:16:26.663Z,16
2017-06-02T01:17:07.247Z,16.05
2017-06-02T01:17:47.833Z,16.01
2017-06-02T01:18:28.410Z,16.01
2017-06-02T01:19:08.999Z,16.02
2017-06-02T01:19:49.578Z,16
2017-06-02T01:20:30.165Z,16.01
2017-06-02T01:21:10.754Z,15.95
2017-06-02T01:21:51.335Z,15.98
2017-06-02T01:22:31.915Z,16.01
2017-06-02T01:23:12.489Z,16.04
2017-06-02T01:23:53.093Z,15.97
2017-06-02T01:24:33.670Z,16.02
2017-06-02T01:25:14.245Z,15.97
2017-06-02T01:25:54.822Z,16.04
2017-06-02T01:26:35.405Z,15.92
2017-06-02T01:27:15.987Z,16
2017-06-02T01:27:56.571Z,15.94
2017-06-02T01:28:37.144Z,15.91
2017-06-02T01:29:17.738Z,16.01
2017-06-02T01:29:58.337Z,16.01
2017-06-02T01:30:38.915Z,15.98
2017-06-02T01:31:19.509Z,15.97
2017-06-02T01:32:00.093Z,15.97
2017-06-02T01:32:40.686Z,15.9
2017-06-02T01:33:21.265Z,15.95
2017-06-02T01:34:01.846Z,15.9
2017-06-02T01:34:42.420Z,15.88
2017-06-02T01:35:23.005Z,15.92
2017-06-02T01:36:03.604Z,15.91
2017-06-02T01:36:44.203Z,15.83
2017-06-02T01:37:24.791Z,15.84
2017-06-02T01:38:05.359Z,15.84
2017-06-02T01:38:45.952Z,15.8
2017-06-02T01:39:26.520Z,15.82
2017-06-02T01:40:07.274Z,15.82
2017-06-02T01:40:47.873Z,15.82
2017-06-02T01:41:28.461Z,15.83
2017-06-02T01:42:09.039Z,15.9
2017-06-02T01:42:49.623Z,15.86
2017-06-02T01:43:30.196Z,15.8
2017-06-02T01:44:10.793Z,15.79
2017-06-02T01:44:51.384Z,15.76
2017-06-02T01:45:31.965Z,15.76
2017-06-02T01:46:12.550Z,15.84
2017-06-02T01:46:53.136Z,15.8
2017-06-02T01:47:33.726Z,15.9
2017-06-02T01:48:14.319Z,15.82
2017-06-02T01:48:54.919Z,15.79
2017-06-02T01:49:35.493Z,15.86
2017-06-02T01:50:16.077Z,15.86
2017-06-02T01:50:56.657Z,15.83
2017-06-02T01:51:37.246Z,15.86
2017-06-02T01:52:17.827Z,15.77
2017-06-02T01:52:58.407Z,15.77
2017-06-02T01:53:39.002Z,15.77
2017-06-02T01:54:19.623Z,15.88
2017-06-02T01:55:00.203Z,15.77
2017-06-02T01:55:40.790Z,15.9
2017-06-02T01:56:21.368Z,15.91
2017-06-02T01:57:01.942Z,16.04
2017-06-02T01:57:42.630Z,15.98
2017-06-02T01:58:23.226Z,16.2
2017-06-02T01:59:03.821Z,16.31
2017-06-02T01:59:44.411Z,16.31
2017-06-02T02:00:24.988Z,16.5
2017-06-02T02:01:05.576Z,16.56
2017-06-02T02:01:46.168Z,16.57
2017-06-02T02:02:26.756Z,16.58
2017-06-02T02:03:07.373Z,16.54
2017-06-02T02:03:47.947Z,16.54
2017-06-02T02:04:28.542Z,16.36
2017-06-02T02:05:09.126Z,16.41
2017-06-02T02:05:49.713Z,16.38
2017-06-02T02:06:30.301Z,16.32
2017-06-02T02:07:10.899Z,16.33
2017-06-02T02:07:51.466Z,16.13
2017-06-02T02:08:32.057Z,16.09
2017-06-02T02:09:12.638Z,16.12
2017-06-02T02:09:53.222Z,16.05
2017-06-02T02:10:33.818Z,16.08
2017-06-02T02:11:14.403Z,16.04
2017-06-02T02:11:54.983Z,16.05
2017-06-02T02:12:35.582Z,16.01
2017-06-02T02:13:16.178Z,15.91
2017-06-02T02:13:56.766Z,15.94
2017-06-02T02:14:37.348Z,15.84
2017-06-02T02:15:17.933Z,15.84
2017-06-02T02:15:58.518Z,15.94
2017-06-02T02:16:39.094Z,15.82
2017-06-02T02:17:19.690Z,15.77
2017-06-02T02:18:00.295Z,15.82
2017-06-02T02:18:40.862Z,15.76
2017-06-02T02:19:21.444Z,15.73
2017-06-02T02:20:02.046Z,15.75
2017-06-02T02:20:42.650Z,15.73
2017-06-02T02:21:23.267Z,15.68
2017-06-02T02:22:03.883Z,15.67
2017-06-02T02:22:44.472Z,15.65
2017-06-02T02:23:25.039Z,15.72
2017-06-02T02:24:05.634Z,15.58
2017-06-02T02:24:46.211Z,15.75
2017-06-02T02:25:26.827Z,15.62
2017-06-02T02:26:07.412Z,15.61
2017-06-02T02:26:48.001Z,15.58
2017-06-02T02:27:28.575Z,15.58
2017-06-02T02:28:09.167Z,15.57
2017-06-02T02:28:49.756Z,15.57
2017-06-02T02:29:30.342Z,15.59
2017-06-02T02:30:10.930Z,15.57
2017-06-02T02:30:51.512Z,15.52
2017-06-02T02:31:32.090Z,15.51
2017-06-02T02:32:12.676Z,15.44
2017-06-02T02:32:53.266Z,15.51
2017-06-02T02:33:33.844Z,15.47
2017-06-02T02:34:14.437Z,15.47
2017-06-02T02:34:55.018Z,15.47
2017-06-02T02:35:35.598Z,15.54
2017-06-02T02:36:16.185Z,15.44
2017-06-02T02:36:56.764Z,15.49
2017-06-02T02:37:37.359Z,15.47
2017-06-02T02:38:17.946Z,15.37
2017-06-02T02:38:58.531Z,15.46
2017-06-02T02:39:39.121Z,15.35
2017-06-02T02:40:19.716Z,15.36
2017-06-02T02:41:00.286Z,15.4
2017-06-02T02:41:40.876Z,15.44
2017-06-02T02:42:21.472Z,15.42
2017-06-02T02:43:02.057Z,15.33
2017-06-02T02:43:42.648Z,15.35
2017-06-02T02:44:23.236Z,15.33
2017-06-02T02:45:03.835Z,15.35
2017-06-02T02:45:44.477Z,15.43
2017-06-02T02:46:25.067Z,15.44
2017-06-02T02:47:05.650Z,15.35
2017-06-02T02:47:46.238Z,15.35
2017-06-02T02:48:26.814Z,15.36
2017-06-02T02:49:07.388Z,15.37
2017-06-02T02:49:47.959Z,15.35
2017-06-02T02:50:28.547Z,15.46
2017-06-02T02:51:09.126Z,15.35
2017-06-02T02:51:49.703Z,15.36
2017-06-02T02:52:30.278Z,15.4
2017-06-02T02:53:10.851Z,15.43
2017-06-02T02:53:51.419Z,15.37
2017-06-02T02:54:31.997Z,15.37
2017-06-02T02:55:12.576Z,15.37
2017-06-02T02:55:53.159Z,15.4
2017-06-02T02:56:33.759Z,15.36
2017-06-02T02:57:14.344Z,15.37
2017-06-02T02:57:54.925Z,15.35
2017-06-02T02:58:35.495Z,15.33
2017-06-02T02:59:16.079Z,15.36
2017-06-02T02:59:56.658Z,15.28
2017-06-02T03:00:37.253Z,15.39
2017-06-02T03:01:17.845Z,15.36
2017-06-02T03:01:58.428Z,15.37
2017-06-02T03:02:39.017Z,15.39
2017-06-02T03:03:19.639Z,15.28
2017-06-02T03:04:00.222Z,15.28
2017-06-02T03:04:40.799Z,15.28
2017-06-02T03:05:21.392Z,15.33
2017-06-02T03:06:01.984Z,15.31
2017-06-02T03:06:42.562Z,15.22
2017-06-02T03:07:23.156Z,15.27
2017-06-02T03:08:03.755Z,15.33
2017-06-02T03:08:44.358Z,15.31
2017-06-02T03:09:24.944Z,15.31
2017-06-02T03:10:05.534Z,15.27
2017-06-02T03:10:46.118Z,15.28
2017-06-02T03:11:26.708Z,15.29
2017-06-02T03:12:07.291Z,15.31
2017-06-02T03:12:47.872Z,15.29
2017-06-02T03:13:28.482Z,15.35
2017-06-02T03:14:09.077Z,15.29
2017-06-02T03:14:49.659Z,15.36
2017-06-02T03:15:30.251Z,15.33
2017-06-02T03:16:10.833Z,15.25
2017-06-02T03:16:51.421Z,15.31
2017-06-02T03:17:31.998Z,15.28
2017-06-02T03:18:12.601Z,15.24
2017-06-02T03:18:53.183Z,15.29
2017-06-02T03:19:33.821Z,15.25
2017-06-02T03:20:14.379Z,15.24
2017-06-02T03:20:54.976Z,15.27
2017-06-02T03:21:35.562Z,15.31
2017-06-02T03:22:16.156Z,15.21
2017-06-02T03:22:56.750Z,15.31
2017-06-02T03:23:37.323Z,15.21
2017-06-02T03:24:17.917Z,15.27
2017-06-02T03:24:58.495Z,15.29
2017-06-02T03:25:39.071Z,15.22
2017-06-02T03:26:19.668Z,15.29
2017-06-02T03:27:00.247Z,15.21
2017-06-02T03:27:40.826Z,15.27
2017-06-02T03:28:21.410Z,15.27
2017-06-02T03:29:01.990Z,15.22
2017-06-02T03:29:42.574Z,15.29
2017-06-02T03:30:23.190Z,15.29
2017-06-02T03:31:03.771Z,15.24
2017-06-02T03:31:44.358Z,15.21
2017-06-02T03:32:24.921Z,15.28
2017-06-02T03:33:05.536Z,15.24
2017-06-02T03:33:46.091Z,15.25
2017-06-02T03:34:26.673Z,15.29
2017-06-02T03:35:07.248Z,15.33
2017-06-02T03:35:47.839Z,15.25
2017-06-02T03:36:28.431Z,15.35
2017-06-02T03:37:09.021Z,15.28
2017-06-02T03:37:49.607Z,15.27
2017-06-02T03:38:30.190Z,15.27
2017-06-02T03:39:10.775Z,15.33
2017-06-02T03:39:51.370Z,15.29
2017-06-02T03:40:31.942Z,15.28
2017-06-02T03:41:12.526Z,15.33
2017-06-02T03:41:53.108Z,15.25
2017-06-02T03:42:33.737Z,15.28
2017-06-02T03:43:14.330Z,15.29
2017-06-02T03:43:54.912Z,15.39
2017-06-02T03:44:35.496Z,15.31
2017-06-02T03:45:16.084Z,15.29
2017-06-02T03:45:56.662Z,15.36
2017-06-02T03:46:37.241Z,15.27
2017-06-02T03:47:17.826Z,15.36
2017-06-02T03:47:58.401Z,15.33
2017-06-02T03:48:38.981Z,15.33
2017-06-02T03:49:19.566Z,15.36
2017-06-02T03:50:00.144Z,15.36
2017-06-02T03:50:40.731Z,15.33
2017-06-02T03:51:21.347Z,15.36
2017-06-02T03:52:01.931Z,15.35
2017-06-02T03:52:42.504Z,15.37
2017-06-02T03:53:23.097Z,15.39
2017-06-02T03:54:03.691Z,15.42
2017-06-02T03:54:44.285Z,15.4
2017-06-02T03:55:24.860Z,15.33
2017-06-02T03:56:05.452Z,15.31
2017-06-02T03:56:46.045Z,15.35
2017-06-02T03:57:26.628Z,15.46
2017-06-02T03:58:07.209Z,15.42
2017-06-02T03:58:47.794Z,15.49
2017-06-02T03:59:28.374Z,15.37
2017-06-02T04:00:08.969Z,15.52
2017-06-02T04:00:49.585Z,15.46
2017-06-02T04:01:30.184Z,15.49
2017-06-02T04:02:10.774Z,15.54
2017-06-02T04:02:51.358Z,15.52
2017-06-02T04:03:31.946Z,15.58
2017-06-02T04:04:12.549Z,15.54
2017-06-02T04:04:53.143Z,15.58
2017-06-02T04:05:33.796Z,15.62
2017-06-02T04:06:14.327Z,15.57
2017-06-02T04:06:54.942Z,15.57
2017-06-02T04:07:35.532Z,15.64
2017-06-02T04:08:16.135Z,15.62
2017-06-02T04:08:56.727Z,15.68
2017-06-02T04:09:37.306Z,15.62
2017-06-02T04:10:17.893Z,15.7
2017-06-02T04:10:58.491Z,15.72
2017-06-02T04:11:39.065Z,15.75
2017-06-02T04:12:19.666Z,15.73
2017-06-02T04:13:00.271Z,15.67
2017-06-02T04:13:40.841Z,15.75
2017-06-02T04:14:21.426Z,15.72
2017-06-02T04:15:02.010Z,15.7
2017-06-02T04:15:42.652Z,15.68
2017-06-02T04:16:23.237Z,15.72
2017-06-02T04:17:03.822Z,15.73
2017-06-02T04:17:44.416Z,15.76
2017-06-02T04:18:25.028Z,15.77
2017-06-02T04:19:05.598Z,15.76
2017-06-02T04:19:46.181Z,15.73
2017-06-02T04:20:26.785Z,15.79
2017-06-02T04:21:07.379Z,15.79
2017-06-02T04:21:47.981Z,15.79
2017-06-02T04:22:28.570Z,15.91
2017-06-02T04:23:09.169Z,15.86
2017-06-02T04:23:49.760Z,15.86
2017-06-02T04:24:30.342Z,15.83
2017-06-02T04:25:10.941Z,15.82
2017-06-02T04:25:51.512Z,15.82
2017-06-02T04:26:32.089Z,15.83
2017-06-02T04:27:12.679Z,15.92
2017-06-02T04:27:53.271Z,15.9
2017-06-02T04:28:33.856Z,15.97
2017-06-02T04:29:14.492Z,15.97
2017-06-02T04:29:55.194Z,15.94
2017-06-02T04:30:35.711Z,16.01
2017-06-02T04:31:16.291Z,15.97
2017-06-02T04:31:56.882Z,15.98
2017-06-02T04:32:37.465Z,15.97
2017-06-02T04:33:18.041Z,15.92
2017-06-02T04:33:58.618Z,15.94
2017-06-02T04:34:39.202Z,16
2017-06-02T04:35:19.776Z,16.08
2017-06-02T04:36:00.370Z,16.09
2017-06-02T04:36:40.950Z,16.23
2017-06-02T04:37:21.534Z,16.36
2017-06-02T04:38:02.131Z,16.46
2017-06-02T04:38:42.715Z,16.56
2017-06-02T04:39:23.303Z,16.64
2017-06-02T04:40:03.912Z,16.69
2017-06-02T04:40:44.502Z,16.78
2017-06-02T04:41:25.099Z,16.86
2017-06-02T04:42:05.707Z,16.91
2017-06-02T04:42:46.290Z,17.06
2017-06-02T04:43:26.883Z,17.08
2017-06-02T04:44:07.486Z,17.12
2017-06-02T04:44:48.074Z,17.24
2017-06-02T04:45:28.669Z,17.24
2017-06-02T04:46:09.255Z,17.23
2017-06-02T04:46:49.875Z,17.26
2017-06-02T04:47:30.455Z,17.34
2017-06-02T04:48:11.030Z,17.33
2017-06-02T04:48:51.614Z,17.38
2017-06-02T04:49:32.209Z,17.38
2017-06-02T04:50:12.787Z,17.48
2017-06-02T04:50:53.356Z,17.46
2017-06-02T04:51:33.942Z,17.56
2017-06-02T04:52:14.535Z,17.52
2017-06-02T04:52:55.114Z,17.64
2017-06-02T04:53:35.706Z,17.68
2017-06-02T04:54:16.305Z,17.71
2017-06-02T04:54:56.885Z,17.74
2017-06-02T04:55:37.471Z,17.79
2017-06-02T04:56:18.070Z,17.79
2017-06-02T04:56:58.653Z,17.85
2017-06-02T04:57:39.249Z,17.86
2017-06-02T04:58:19.855Z,17.85
2017-06-02T04:59:00.452Z,17.89
2017-06-02T04:59:41.044Z,17.92
2017-06-02T05:00:21.626Z,18.03
2017-06-02T05:01:02.231Z,18.05
2017-06-02T05:01:42.814Z,18
2017-06-02T05:02:23.403Z,18.08
2017-06-02T05:03:04.055Z,18.05
2017-06-02T05:03:44.631Z,18.15
2017-06-02T05:04:25.247Z,18.19
2017-06-02T05:05:05.834Z,18.2
2017-06-02T05:05:46.421Z,18.18
2017-06-02T05:06:27.017Z,18.16
2017-06-02T05:07:07.648Z,18.23
2017-06-02T05:07:48.270Z,18.2
2017-06-02T05:08:28.871Z,18.22
2017-06-02T05:09:09.464Z,18.11
2017-06-02T05:09:50.045Z,18.15
2017-06-02T05:10:30.644Z,18.28
2017-06-02T05:11:11.221Z,18.34
2017-06-02T05:11:51.816Z,18.29
2017-06-02T05:12:32.415Z,18.4
2017-06-02T05:13:13.005Z,18.38
2017-06-02T05:13:53.597Z,18.44
2017-06-02T05:14:34.182Z,18.45
2017-06-02T05:15:14.780Z,18.44
2017-06-02T05:15:55.383Z,18.47
2017-06-02T05:16:35.971Z,18.52
2017-06-02T05:17:16.553Z,18.53
2017-06-02T05:17:57.154Z,18.58
2017-06-02T05:18:37.739Z,18.68
2017-06-02T05:19:18.343Z,18.68
2017-06-02T05:19:58.930Z,18.66
2017-06-02T05:20:39.553Z,18.75
2017-06-02T05:21:20.134Z,18.71
2017-06-02T05:22:00.721Z,18.81
2017-06-02T05:22:41.303Z,18.84
2017-06-02T05:23:21.892Z,18.89
2017-06-02T05:24:02.480Z,18.89
2017-06-02T05:24:43.066Z,18.9
2017-06-02T05:25:23.670Z,19.11
2017-06-02T05:26:04.266Z,19
2017-06-02T05:26:44.857Z,19.18
2017-06-02T05:27:25.448Z,19.26
2017-06-02T05:28:06.037Z,19.3
2017-06-02T05:28:46.644Z,19.51
2017-06-02T05:29:27.223Z,19.59
2017-06-02T05:30:07.807Z,19.62
2017-06-02T05:30:48.388Z,19.77
2017-06-02T05:31:28.977Z,19.89
2017-06-02T05:32:09.568Z,19.86
2017-06-02T05:32:50.164Z,19.96
2017-06-02T05:33:30.761Z,20.03
2017-06-02T05:34:11.356Z,20.13
2017-06-02T05:34:51.949Z,20.25
2017-06-02T05:35:32.557Z,20.29
2017-06-02T05:36:13.147Z,20.41
2017-06-02T05:36:53.734Z,20.48
2017-06-02T05:37:34.329Z,20.5
2017-06-02T05:38:14.923Z,20.58
2017-06-02T05:38:55.515Z,20.78
2017-06-02T05:39:36.091Z,20.78
2017-06-02T05:40:16.664Z,20.85
2017-06-02T05:40:57.265Z,20.87
2017-06-02T05:41:37.865Z,21.02
2017-06-02T05:42:18.455Z,21.06
2017-06-02T05:42:59.049Z,21.14
2017-06-02T05:43:39.664Z,21.15
2017-06-02T05:44:20.252Z,21.11
2017-06-02T05:45:00.838Z,21.17
2017-06-02T05:45:41.434Z,21.25
2017-06-02T05:46:22.030Z,21.36
2017-06-02T05:47:02.638Z,21.43
2017-06-02T05:47:43.222Z,21.54
2017-06-02T05:48:23.845Z,21.55
2017-06-02T05:49:04.455Z,21.6
2017-06-02T05:49:45.065Z,21.66
2017-06-02T05:50:25.643Z,21.73
2017-06-02T05:51:06.242Z,21.85
2017-06-02T05:51:46.842Z,21.8
2017-06-02T05:52:27.477Z,21.89
2017-06-02T05:53:08.082Z,21.92
2017-06-02T05:53:48.749Z,21.91
2017-06-02T05:54:29.367Z,21.89
2017-06-02T05:55:09.968Z,21.92
2017-06-02T05:55:50.565Z,22
2017-06-02T05:56:31.153Z,21.96
2017-06-02T05:57:11.790Z,22.07
2017-06-02T05:57:52.392Z,22.15
2017-06-02T05:58:32.998Z,22.17
2017-06-02T05:59:13.593Z,22.18
2017-06-02T05:59:54.199Z,22.29
2017-06-02T06:00:34.807Z,22.38
2017-06-02T06:01:15.433Z,22.32
2017-06-02T06:01:56.051Z,22.39
2017-06-02T06:02:36.648Z,22.43
2017-06-02T06:03:17.298Z,22.48
2017-06-02T06:03:57.975Z,22.5
2017-06-02T06:04:38.596Z,22.62
2017-06-02T06:05:19.227Z,22.59
2017-06-02T06:06:00.001Z,22.63
2017-06-02T06:06:40.629Z,22.72
2017-06-02T06:07:21.347Z,22.72
2017-06-02T06:08:01.961Z,22.75
2017-06-02T06:08:42.607Z,22.78
2017-06-02T06:09:23.236Z,22.83
2017-06-02T06:10:03.845Z,22.9
2017-06-02T06:10:44.457Z,22.88
2017-06-02T06:11:25.055Z,22.94
2017-06-02T06:12:05.647Z,23.08
2017-06-02T06:12:46.272Z,23.12
2017-06-02T06:13:26.902Z,23.1
2017-06-02T06:14:07.546Z,23.12
2017-06-02T06:14:48.166Z,23.23
2017-06-02T06:15:28.752Z,23.17
2017-06-02T06:16:09.356Z,23.25
2017-06-02T06:16:49.952Z,23.32
2017-06-02T06:17:30.556Z,23.37
2017-06-02T06:18:11.161Z,23.39
2017-06-02T06:18:51.870Z,23.28
2017-06-02T06:19:34.075Z,23.41
2017-06-02T06:20:14.698Z,23.54
2017-06-02T06:20:55.901Z,23.54
2017-06-02T06:21:39.869Z,23.54
2017-06-02T06:22:23.023Z,23.59
2017-06-02T06:23:03.635Z,23.63
2017-06-02T06:23:44.219Z,23.65
2017-06-02T06:24:24.834Z,23.65
2017-06-02T06:25:11.894Z,23.73
2017-06-02T06:25:52.476Z,23.76
2017-06-02T06:26:33.111Z,23.77
2017-06-02T06:27:14.098Z,23.77
2017-06-02T06:27:54.692Z,23.81
2017-06-02T06:28:36.285Z,23.86
2017-06-02T06:29:16.987Z,23.84
2017-06-02T06:29:57.592Z,23.91
2017-06-02T06:30:38.248Z,23.91
2017-06-02T06:31:25.392Z,23.96
2017-06-02T06:32:11.436Z,23.92
2017-06-02T06:32:52.231Z,23.95
2017-06-02T06:33:32.823Z,23.99
2017-06-02T06:34:13.417Z,23.96
2017-06-02T06:34:54.011Z,23.95
2017-06-02T06:35:34.706Z,24.05
2017-06-02T06:36:15.597Z,24.03
2017-06-02T06:36:56.213Z,23.99
2017-06-02T06:37:36.809Z,23.95
2017-06-02T06:38:17.400Z,24.06
2017-06-02T06:38:57.994Z,24.11
2017-06-02T06:39:39.116Z,24.11
2017-06-02T06:40:21.455Z,24.11
2017-06-02T06:41:04.635Z,24.16
2017-06-02T06:41:49.772Z,24.23
2017-06-02T06:42:30.363Z,24.21
2017-06-02T06:43:11.787Z,24.18
2017-06-02T06:43:52.384Z,24.17
2017-06-02T06:44:39.441Z,24.29
2017-06-02T06:45:20.038Z,24.28
2017-06-02T06:46:00.650Z,24.24
2017-06-02T06:46:41.248Z,24.24
2017-06-02T06:47:21.845Z,24.3
2017-06-02T06:48:02.454Z,24.33
2017-06-02T06:48:43.575Z,24.32
2017-06-02T06:49:24.465Z,24.39
2017-06-02T06:50:05.062Z,24.43
2017-06-02T06:50:51.839Z,24.48
2017-06-02T06:51:39.090Z,24.55
2017-06-02T06:52:20.882Z,24.47
2017-06-02T06:53:03.284Z,24.5
2017-06-02T06:53:43.950Z,24.42
2017-06-02T06:54:26.356Z,24.57
2017-06-02T06:55:11.405Z,24.48
2017-06-02T06:55:53.470Z,24.57
2017-06-02T06:56:34.735Z,24.57
2017-06-02T06:57:18.690Z,24.66
2017-06-02T06:58:00.064Z,24.51
2017-06-02T06:58:47.246Z,24.57
2017-06-02T06:59:27.883Z,24.58
2017-06-02T07:00:11.364Z,24.66
2017-06-02T07:00:53.652Z,24.6
2017-06-02T07:01:38.484Z,24.68
2017-06-02T07:02:22.310Z,24.66
2017-06-02T07:03:06.112Z,24.74
2017-06-02T07:03:47.072Z,24.69
2017-06-02T07:04:34.094Z,24.84
2017-06-02T07:05:21.785Z,24.81
2017-06-02T07:06:02.931Z,24.78
2017-06-02T07:06:47.312Z,24.84
2017-06-02T07:07:44.291Z,24.89
2017-06-02T07:08:24.902Z,24.84
2017-06-02T07:09:05.512Z,24.88
2017-06-02T07:09:52.700Z,24.85
2017-06-02T07:10:34.241Z,24.96
2017-06-02T07:11:16.509Z,24.84
2017-06-02T07:11:57.158Z,24.98
2017-06-02T07:12:37.762Z,24.96
2017-06-02T07:13:18.379Z,24.91
2017-06-02T07:13:58.964Z,24.98
2017-06-02T07:14:40.142Z,25.07
2017-06-02T07:15:20.837Z,25.08
2017-06-02T07:16:01.569Z,25.08
2017-06-02T07:16:42.161Z,25.11
2017-06-02T07:17:22.753Z,25.17
2017-06-02T07:18:03.901Z,25.11
2017-06-02T07:18:44.973Z,25.17
2017-06-02T07:19:25.624Z,25.25
2017-06-02T07:20:06.979Z,25.26
2017-06-02T07:20:47.622Z,25.32
2017-06-02T07:21:28.211Z,25.33
2017-06-02T07:22:08.810Z,25.32
2017-06-02T07:22:49.406Z,25.36
2017-06-02T07:23:29.999Z,25.32
2017-06-02T07:24:10.602Z,25.32
2017-06-02T07:24:51.279Z,25.32
2017-06-02T07:25:31.874Z,25.35
2017-06-02T07:26:12.832Z,25.31
2017-06-02T07:26:53.428Z,25.35
2017-06-02T07:27:34.025Z,25.33
2017-06-02T07:28:14.653Z,25.43
2017-06-02T07:28:55.280Z,25.4
2017-06-02T07:29:35.910Z,25.54
2017-06-02T07:30:16.521Z,25.5
2017-06-02T07:30:57.550Z,25.53
2017-06-02T07:31:38.173Z,25.6
2017-06-02T07:32:18.826Z,25.69
2017-06-02T07:32:59.419Z,25.66
2017-06-02T07:33:40.015Z,25.68
2017-06-02T07:34:20.613Z,25.66
2017-06-02T07:35:02.138Z,25.75
2017-06-02T07:35:44.271Z,25.75
2017-06-02T07:36:25.368Z,25.68
2017-06-02T07:37:05.966Z,25.85
2017-06-02T07:37:46.694Z,25.81
2017-06-02T07:38:27.490Z,25.8
2017-06-02T07:39:08.083Z,25.95
2017-06-02T07:39:48.694Z,25.93
2017-06-02T07:40:29.310Z,25.93
2017-06-02T07:41:09.914Z,25.93
2017-06-02T07:41:50.491Z,25.84
2017-06-02T07:42:31.090Z,25.84
2017-06-02T07:43:11.677Z,25.83
2017-06-02T07:43:52.270Z,25.83
2017-06-02T07:44:32.898Z,25.84
2017-06-02T07:45:13.474Z,25.84
2017-06-02T07:45:54.074Z,25.81
2017-06-02T07:46:34.678Z,25.85
2017-06-02T07:47:15.276Z,25.84
2017-06-02T07:47:55.887Z,25.85
2017-06-02T07:48:36.474Z,25.9
2017-06-02T07:49:17.089Z,25.85
2017-06-02T07:49:57.701Z,25.85
2017-06-02T07:50:38.300Z,25.84
2017-06-02T07:51:18.886Z,25.85
2017-06-02T07:51:59.501Z,25.85
2017-06-02T07:52:40.110Z,25.85
2017-06-02T07:53:20.693Z,25.88
2017-06-02T07:54:01.303Z,25.81
2017-06-02T07:54:41.899Z,25.78
2017-06-02T07:55:22.496Z,25.7
2017-06-02T07:56:03.100Z,25.7
2017-06-02T07:56:43.691Z,25.72
2017-06-02T07:57:26.495Z,25.69
2017-06-02T07:58:07.094Z,25.62
2017-06-02T07:58:47.676Z,25.68
2017-06-02T07:59:28.290Z,25.53
2017-06-02T08:00:08.888Z,25.54
2017-06-02T08:00:49.491Z,25.55
2017-06-02T08:01:30.182Z,25.53
2017-06-02T08:02:10.796Z,25.55
2017-06-02T08:02:51.392Z,25.58
2017-06-02T08:03:31.970Z,25.55
2017-06-02T08:04:12.576Z,25.59
2017-06-02T08:04:53.170Z,25.58
2017-06-02T08:05:33.769Z,25.55
2017-06-02T08:06:14.362Z,25.53
2017-06-02T08:06:54.972Z,25.5
2017-06-02T08:07:35.567Z,25.65
2017-06-02T08:08:16.177Z,25.68
2017-06-02T08:08:56.784Z,25.7
2017-06-02T08:09:37.373Z,25.72
2017-06-02T08:10:17.978Z,25.77
2017-06-02T08:11:00.406Z,25.77
2017-06-02T08:11:41.022Z,25.83
2017-06-02T08:12:21.635Z,25.85
2017-06-02T08:13:02.232Z,25.93
2017-06-02T08:13:42.829Z,25.87
2017-06-02T08:14:23.432Z,25.85
2017-06-02T08:15:04.031Z,26
2017-06-02T08:15:44.648Z,26
2017-06-02T08:16:26.380Z,25.87
2017-06-02T08:17:07.486Z,25.83
2017-06-02T08:17:48.069Z,25.68
2017-06-02T08:18:28.680Z,25.69
2017-06-02T08:19:09.282Z,25.53
2017-06-02T08:19:49.882Z,25.5
2017-06-02T08:20:30.474Z,25.48
2017-06-02T08:21:11.085Z,25.51
2017-06-02T08:21:51.688Z,25.51
2017-06-02T08:22:32.274Z,25.48
2017-06-02T08:23:12.882Z,25.47
2017-06-02T08:23:53.476Z,25.58
2017-06-02T08:24:34.076Z,25.59
2017-06-02T08:25:14.689Z,25.69
2017-06-02T08:25:55.275Z,25.69
2017-06-02T08:26:35.882Z,25.63
2017-06-02T08:27:16.477Z,25.62
2017-06-02T08:27:57.063Z,25.55
2017-06-02T08:28:37.654Z,25.44
2017-06-02T08:29:18.373Z,25.44
2017-06-02T08:30:02.566Z,25.47
2017-06-02T08:30:43.157Z,25.51
2017-06-02T08:31:23.753Z,25.54
2017-06-02T08:32:04.359Z,25.51
2017-06-02T08:32:45.918Z,25.48
2017-06-02T08:33:28.591Z,25.44
2017-06-02T08:34:09.206Z,25.38
2017-06-02T08:34:49.805Z,25.22
2017-06-02T08:35:30.409Z,25.16
2017-06-02T08:36:11.014Z,25.03
2017-06-02T08:36:51.657Z,24.96
2017-06-02T08:37:32.277Z,24.93
2017-06-02T08:38:13.392Z,24.88
2017-06-02T08:38:53.989Z,24.81
2017-06-02T08:39:34.821Z,24.91
2017-06-02T08:40:15.395Z,24.98
2017-06-02T08:40:55.989Z,24.93
2017-06-02T08:41:36.597Z,24.93
2017-06-02T08:42:17.176Z,24.81
2017-06-02T08:42:57.773Z,24.8
2017-06-02T08:43:38.368Z,24.73
2017-06-02T08:44:18.966Z,24.66
2017-06-02T08:44:59.561Z,24.68
2017-06-02T08:45:40.157Z,24.73
2017-06-02T08:46:20.744Z,24.78
2017-06-02T08:47:01.337Z,24.88